createdAt,value
2017-08-27T00:01:02.809Z,19.80
2017-08-27T00:03:29.073Z,19.80
2017-08-27T00:05:55.327Z,19.80
2017-08-27T00:08:21.573Z,19.70
2017-08-27T00:10:47.869Z,19.70
2017-08-27T00:13:15.091Z,19.60
2017-08-27T00:15:41.362Z,19.70
2017-08-27T00:18:07.637Z,19.60
2017-08-27T00:20:33.897Z,19.60
2017-08-27T00:23:00.161Z,19.50
2017-08-27T00:25:26.849Z,19.50
2017-08-27T00:27:53.112Z,19.50
2017-08-27T00:30:19.385Z,19.50
2017-08-27T00:32:45.646Z,19.50
2017-08-27T00:35:11.908Z,19.50
2017-08-27T00:37:38.182Z,19.50
2017-08-27T00:40:04.448Z,19.50
2017-08-27T00:42:30.724Z,19.40
2017-08-27T00:44:56.996Z,19.30
2017-08-27T00:47:23.249Z,19.50
2017-08-27T00:49:49.537Z,19.30
2017-08-27T00:52:15.834Z,19.40
2017-08-27T00:54:42.137Z,19.40
2017-08-27T00:57:08.428Z,19.40
2017-08-27T00:59:35.442Z,19.30
2017-08-27T01:02:01.720Z,19.20
2017-08-27T01:04:27.996Z,19.20
2017-08-27T01:06:54.261Z,19.20
2017-08-27T01:09:20.541Z,19.00
2017-08-27T01:11:46.816Z,19.00
2017-08-27T01:14:13.126Z,18.90
2017-08-27T01:16:39.373Z,18.90
2017-08-27T01:19:06.665Z,18.80
2017-08-27T01:21:32.934Z,18.70
2017-08-27T01:23:59.225Z,18.80
2017-08-27T01:26:25.493Z,18.80
2017-08-27T01:28:51.789Z,18.80
2017-08-27T01:31:18.045Z,18.80
2017-08-27T01:33:44.293Z,18.80
2017-08-27T01:36:10.547Z,18.90
2017-08-27T01:38:36.834Z,18.90
2017-08-27T01:41:03.088Z,18.90
2017-08-27T01:43:29.342Z,18.90
2017-08-27T01:45:55.601Z,18.90
2017-08-27T01:48:21.852Z,18.90
2017-08-27T01:50:48.116Z,18.90
2017-08-27T01:53:14.366Z,18.90
2017-08-27T01:55:40.613Z,18.80
2017-08-27T01:58:06.873Z,18.70
2017-08-27T02:00:33.124Z,18.70
2017-08-27T02:02:59.413Z,18.70
2017-08-27T02:05:25.663Z,18.60
2017-08-27T02:07:51.923Z,18.50
2017-08-27T02:10:18.179Z,18.50
2017-08-27T02:12:44.433Z,18.50
2017-08-27T02:15:10.701Z,18.60
2017-08-27T02:17:36.953Z,18.50
2017-08-27T02:20:03.195Z,18.40
2017-08-27T02:22:29.445Z,18.40
2017-08-27T02:24:55.692Z,18.40
2017-08-27T02:27:21.969Z,18.40
2017-08-27T02:29:48.232Z,18.30
2017-08-27T02:32:14.477Z,18.30
2017-08-27T02:34:40.725Z,18.20
2017-08-27T02:37:08.001Z,18.10
2017-08-27T02:39:34.273Z,18.10
2017-08-27T02:42:00.524Z,18.00
2017-08-27T02:44:26.784Z,18.00
2017-08-27T02:46:53.040Z,18.00
2017-08-27T02:49:19.297Z,17.90
2017-08-27T02:51:45.569Z,17.90
2017-08-27T02:54:11.816Z,18.00
2017-08-27T02:56:38.082Z,18.10
2017-08-27T02:59:04.338Z,18.10
2017-08-27T03:01:30.593Z,18.00
2017-08-27T03:03:56.878Z,18.10
2017-08-27T03:06:23.139Z,18.00
2017-08-27T03:08:49.410Z,18.00
2017-08-27T03:11:15.717Z,18.00
2017-08-27T03:13:41.986Z,18.00
2017-08-27T03:16:08.269Z,18.00
2017-08-27T03:18:34.537Z,17.90
2017-08-27T03:21:00.821Z,17.90
2017-08-27T03:23:27.084Z,18.00
2017-08-27T03:25:53.324Z,17.90
2017-08-27T03:28:19.590Z,17.90
2017-08-27T03:30:45.857Z,17.80
2017-08-27T03:33:12.126Z,17.90
2017-08-27T03:35:38.393Z,17.90
2017-08-27T03:38:04.669Z,17.90
2017-08-27T03:40:30.925Z,18.00
2017-08-27T03:42:57.198Z,18.00
2017-08-27T03:45:23.475Z,18.00
2017-08-27T03:47:49.730Z,18.00
2017-08-27T03:50:15.996Z,18.00
2017-08-27T03:52:42.281Z,18.00
2017-08-27T03:55:08.572Z,17.90
2017-08-27T03:57:34.822Z,17.90
2017-08-27T04:00:01.142Z,17.90
2017-08-27T04:02:27.406Z,17.90
2017-08-27T04:04:53.695Z,17.90
2017-08-27T04:07:19.950Z,17.90
2017-08-27T04:09:46.344Z,17.90
2017-08-27T04:12:12.593Z,17.90
2017-08-27T04:14:38.850Z,17.90
2017-08-27T04:17:05.129Z,17.80
2017-08-27T04:19:31.379Z,17.90
2017-08-27T04:21:57.633Z,17.90
2017-08-27T04:24:23.902Z,18.00
2017-08-27T04:26:50.153Z,17.90
2017-08-27T04:29:16.425Z,17.90
2017-08-27T04:31:42.682Z,17.80
2017-08-27T04:34:08.987Z,17.90
2017-08-27T04:36:35.258Z,17.80
2017-08-27T04:39:01.518Z,18.00
2017-08-27T04:41:28.808Z,18.10
2017-08-27T04:43:55.053Z,18.10
2017-08-27T04:46:21.309Z,18.10
2017-08-27T04:48:47.571Z,18.20
2017-08-27T04:51:13.852Z,18.20
2017-08-27T04:53:40.130Z,18.20
2017-08-27T04:56:06.392Z,18.30
2017-08-27T04:58:32.656Z,18.40
2017-08-27T05:00:58.913Z,18.30
2017-08-27T05:03:25.169Z,18.30
2017-08-27T05:05:51.433Z,18.30
2017-08-27T05:08:17.695Z,18.20
2017-08-27T05:10:43.940Z,18.20
2017-08-27T05:13:10.201Z,18.30
2017-08-27T05:15:36.469Z,18.20
2017-08-27T05:18:02.742Z,18.20
2017-08-27T05:20:28.993Z,18.30
2017-08-27T05:22:55.244Z,18.40
2017-08-27T05:25:21.509Z,18.30
2017-08-27T05:27:47.805Z,18.50
2017-08-27T05:30:14.086Z,18.60
2017-08-27T05:32:40.353Z,18.80
2017-08-27T05:35:07.645Z,18.80
2017-08-27T05:37:33.917Z,18.90
2017-08-27T05:40:00.178Z,18.90
2017-08-27T05:42:26.472Z,19.00
2017-08-27T05:44:52.729Z,19.20
2017-08-27T05:47:18.984Z,19.20
2017-08-27T05:49:45.231Z,19.30
2017-08-27T05:52:11.492Z,19.40
2017-08-27T05:54:37.768Z,19.40
2017-08-27T05:57:04.039Z,19.60
2017-08-27T05:59:30.291Z,19.60
2017-08-27T06:01:56.547Z,19.70
2017-08-27T06:04:22.798Z,19.70
2017-08-27T06:06:49.108Z,19.90
2017-08-27T06:09:15.356Z,20.10
2017-08-27T06:11:41.609Z,20.10
2017-08-27T06:14:07.866Z,20.10
2017-08-27T06:16:34.128Z,20.10
2017-08-27T06:19:00.398Z,20.20
2017-08-27T06:21:26.644Z,20.40
2017-08-27T06:23:52.916Z,20.50
2017-08-27T06:26:19.238Z,20.80
2017-08-27T06:28:45.528Z,20.80
2017-08-27T06:31:11.810Z,20.80
2017-08-27T06:33:38.073Z,20.90
2017-08-27T06:36:04.322Z,21.10
2017-08-27T06:38:30.584Z,21.20
2017-08-27T06:40:56.828Z,21.20
2017-08-27T06:43:23.097Z,21.30
2017-08-27T06:45:49.394Z,21.30
2017-08-27T06:48:15.661Z,21.50
2017-08-27T06:50:41.924Z,21.50
2017-08-27T06:53:08.177Z,21.50
2017-08-27T06:55:34.453Z,21.70
2017-08-27T06:58:00.703Z,21.80
2017-08-27T07:00:26.961Z,22.20
2017-08-27T07:02:53.214Z,22.60
2017-08-27T07:05:19.474Z,22.80
2017-08-27T07:07:45.764Z,23.00
2017-08-27T07:10:12.020Z,23.10
2017-08-27T07:12:38.282Z,23.20
2017-08-27T07:15:05.573Z,23.10
2017-08-27T07:17:31.837Z,22.90
2017-08-27T07:19:58.133Z,22.80
2017-08-27T07:22:24.386Z,22.50
2017-08-27T07:24:51.385Z,22.00
2017-08-27T07:27:17.640Z,21.90
2017-08-27T07:29:43.893Z,21.90
2017-08-27T07:32:10.169Z,21.80
2017-08-27T07:34:36.421Z,21.70
2017-08-27T07:37:02.684Z,21.70
2017-08-27T07:39:28.937Z,21.60
2017-08-27T07:41:55.203Z,21.50
2017-08-27T07:44:22.505Z,21.40
2017-08-27T07:46:48.753Z,21.40
2017-08-27T07:49:15.028Z,21.30
2017-08-27T07:51:41.277Z,21.30
2017-08-27T07:54:07.562Z,21.40
2017-08-27T07:56:33.832Z,21.80
2017-08-27T07:59:00.108Z,22.00
2017-08-27T08:01:26.385Z,22.10
2017-08-27T08:03:52.642Z,22.30
2017-08-27T08:06:18.949Z,22.60
2017-08-27T08:08:45.217Z,22.70
2017-08-27T08:11:11.468Z,22.80
2017-08-27T08:13:37.716Z,23.00
2017-08-27T08:16:03.998Z,23.20
2017-08-27T08:18:30.261Z,23.60
2017-08-27T08:20:56.548Z,23.90
2017-08-27T08:23:22.794Z,24.10
2017-08-27T08:25:49.051Z,24.40
2017-08-27T08:28:15.310Z,24.60
2017-08-27T08:30:41.570Z,24.90
2017-08-27T08:33:07.849Z,25.30
2017-08-27T08:35:34.102Z,25.80
2017-08-27T08:38:00.364Z,25.90
2017-08-27T08:40:27.625Z,26.40
2017-08-27T08:42:53.890Z,26.60
2017-08-27T08:45:20.160Z,26.40
2017-08-27T08:47:46.412Z,26.40
2017-08-27T08:50:12.652Z,26.20
2017-08-27T08:52:38.917Z,26.30
2017-08-27T08:55:05.169Z,26.60
2017-08-27T08:57:31.453Z,26.80
2017-08-27T08:59:57.709Z,26.70
2017-08-27T09:02:23.961Z,26.90
2017-08-27T09:04:50.210Z,26.90
2017-08-27T09:07:16.465Z,26.90
2017-08-27T09:09:42.754Z,27.10
2017-08-27T09:12:09.009Z,27.30
2017-08-27T09:14:35.264Z,27.40
2017-08-27T09:17:01.508Z,27.40
2017-08-27T09:19:27.777Z,27.20
2017-08-27T09:21:54.354Z,27.00
2017-08-27T09:24:20.645Z,26.60
2017-08-27T09:26:46.897Z,26.70
2017-08-27T09:29:13.145Z,27.00
2017-08-27T09:31:39.413Z,27.40
2017-08-27T09:34:05.674Z,28.00
2017-08-27T09:36:31.924Z,28.20
2017-08-27T09:38:58.224Z,28.50
2017-08-27T09:41:24.473Z,28.60
2017-08-27T09:43:51.774Z,28.90
2017-08-27T09:46:18.061Z,28.80
2017-08-27T09:48:44.312Z,28.70
2017-08-27T09:51:10.610Z,28.60
2017-08-27T09:53:36.869Z,28.70
2017-08-27T09:56:03.134Z,28.50
2017-08-27T09:58:29.397Z,28.20
2017-08-27T10:00:55.645Z,27.40
2017-08-27T10:03:21.935Z,27.30
2017-08-27T10:05:48.180Z,27.20
2017-08-27T10:08:14.433Z,27.20
2017-08-27T10:10:40.717Z,27.50
